createdAt,value
2024-02-15T07:02:55.091Z,1025.13
2024-02-15T07:03:09.291Z,1025.12
2024-02-15T07:03:23.390Z,1025.12
2024-02-15T07:03:37.508Z,1025.13
2024-02-15T07:04:05.698Z,1025.12
2024-02-15T07:04:19.806Z,1025.12
2024-02-15T07:04:34.245Z,1025.12
2024-02-15T07:04:48.381Z,1025.11
2024-02-15T07:05:16.401Z,1025.11
2024-02-15T07:05:30.413Z,1025.11
2024-02-15T07:05:44.593Z,1025.11
2024-02-15T07:05:58.855Z,1025.10
2024-02-15T07:06:27.004Z,1025.09
2024-02-15T07:06:41.166Z,1025.09
2024-02-15T07:06:55.392Z,1025.08
2024-02-15T07:07:09.590Z,1025.08
2024-02-15T07:07:37.633Z,1025.08
2024-02-15T07:07:51.635Z,1025.07
2024-02-15T07:08:05.672Z,1025.07
2024-02-15T07:08:19.740Z,1025.07
2024-02-15T07:08:47.851Z,1025.06
2024-02-15T07:09:02.009Z,1025.05
2024-02-15T07:09:16.174Z,1025.06
2024-02-15T07:09:30.342Z,1025.05
2024-02-15T07:09:58.496Z,1025.06
2024-02-15T07:10:12.543Z,1025.06
2024-02-15T07:10:26.591Z,1025.06
2024-02-15T07:10:40.611Z,1025.06
2024-02-15T07:10:54.701Z,1025.06
2024-02-15T07:11:08.709Z,1025.06
2024-02-15T07:11:22.727Z,1025.07
2024-02-15T07:11:36.840Z,1025.06
2024-02-15T07:11:52.097Z,1025.07
2024-02-15T07:12:17.766Z,1025.07
2024-02-15T07:12:31.797Z,1025.06
2024-02-15T07:12:45.869Z,1025.07
2024-02-15T07:12:59.858Z,1025.07
2024-02-15T07:13:27.985Z,1025.06
2024-02-15T07:13:42.121Z,1025.07
2024-02-15T07:13:56.392Z,1025.06
2024-02-15T07:14:10.555Z,1025.06
2024-02-15T07:14:38.795Z,1025.06
2024-02-15T07:14:52.921Z,1025.06
2024-02-15T07:15:07.112Z,1025.06
2024-02-15T07:15:21.265Z,1025.06
2024-02-15T07:15:49.492Z,1025.06
2024-02-15T07:16:03.548Z,1025.06
2024-02-15T07:16:17.577Z,1025.06
2024-02-15T07:16:31.614Z,1025.06
2024-02-15T07:17:00.150Z,1025.06
2024-02-15T07:17:14.365Z,1025.06
2024-02-15T07:17:28.428Z,1025.06
2024-02-15T07:17:42.613Z,1025.08
2024-02-15T07:18:10.845Z,1025.07
2024-02-15T07:18:28.942Z,1025.07
2024-02-15T07:18:38.700Z,1025.06
2024-02-15T07:18:53.179Z,1025.06
2024-02-15T07:19:21.666Z,1025.06
2024-02-15T07:19:35.837Z,1025.06
2024-02-15T07:19:49.902Z,1025.06
2024-02-15T07:20:04.043Z,1025.06
2024-02-15T07:20:32.225Z,1025.06
2024-02-15T07:20:46.377Z,1025.05
2024-02-15T07:21:00.567Z,1025.05
2024-02-15T07:21:14.831Z,1025.05
2024-02-15T07:21:42.992Z,1025.04
2024-02-15T07:21:57.016Z,1025.05
2024-02-15T07:22:11.093Z,1025.05
2024-02-15T07:22:25.188Z,1025.04
2024-02-15T07:22:53.306Z,1025.04
2024-02-15T07:23:07.326Z,1025.04
2024-02-15T07:23:21.328Z,1025.05
2024-02-15T07:23:38.559Z,1025.04
2024-02-15T07:24:04.373Z,1025.04
2024-02-15T07:24:18.458Z,1025.04
2024-02-15T07:24:32.521Z,1025.04
2024-02-15T07:24:46.605Z,1025.06
2024-02-15T07:25:14.615Z,1025.05
2024-02-15T07:25:28.644Z,1025.05
2024-02-15T07:25:42.717Z,1025.07
2024-02-15T07:25:56.715Z,1025.06
2024-02-15T07:26:24.765Z,1025.06
2024-02-15T07:26:38.939Z,1025.07
2024-02-15T07:26:53.022Z,1025.07
2024-02-15T07:27:07.128Z,1025.08
2024-02-15T07:27:35.236Z,1025.08
2024-02-15T07:27:49.255Z,1025.08
2024-02-15T07:28:03.282Z,1025.08
2024-02-15T07:28:17.288Z,1025.08
2024-02-15T07:28:45.311Z,1025.08
2024-02-15T07:28:59.334Z,1025.08
2024-02-15T07:29:13.360Z,1025.08
2024-02-15T07:29:27.396Z,1025.08
2024-02-15T07:29:55.476Z,1025.07
2024-02-15T07:30:09.587Z,1025.08
2024-02-15T07:30:25.983Z,1025.08
2024-02-15T07:30:37.723Z,1025.08
2024-02-15T07:31:05.756Z,1025.08
2024-02-15T07:31:19.782Z,1025.08
2024-02-15T07:31:33.831Z,1025.08
2024-02-15T07:31:47.853Z,1025.08
2024-02-15T07:32:15.866Z,1025.09
2024-02-15T07:32:29.967Z,1025.09
2024-02-15T07:32:44.053Z,1025.09
2024-02-15T07:32:58.198Z,1025.09
2024-02-15T07:33:26.537Z,1025.09
2024-02-15T07:33:40.855Z,1025.09
2024-02-15T07:33:55.285Z,1025.09
2024-02-15T07:34:09.596Z,1025.09
2024-02-15T07:34:37.887Z,1025.10
2024-02-15T07:34:52.016Z,1025.10
2024-02-15T07:35:06.061Z,1025.10
2024-02-15T07:35:20.065Z,1025.10
2024-02-15T07:35:48.069Z,1025.09
2024-02-15T07:36:02.190Z,1025.08
2024-02-15T07:36:16.370Z,1025.08
2024-02-15T07:36:30.594Z,1025.08
2024-02-15T07:36:58.680Z,1025.07
2024-02-15T07:37:12.688Z,1025.07
2024-02-15T07:37:26.693Z,1025.07
2024-02-15T07:37:40.744Z,1025.06
2024-02-15T07:38:08.795Z,1025.05
2024-02-15T07:38:22.850Z,1025.06
2024-02-15T07:38:36.893Z,1025.05
2024-02-15T07:38:51.079Z,1025.05
2024-02-15T07:39:19.411Z,1025.05
2024-02-15T07:39:33.439Z,1025.05
2024-02-15T07:39:47.468Z,1025.05
2024-02-15T07:40:01.475Z,1025.05
2024-02-15T07:40:29.661Z,1025.05
2024-02-15T07:40:43.854Z,1025.05
2024-02-15T07:40:57.854Z,1025.05
2024-02-15T07:53:12.506Z,1025.00
2024-02-15T07:53:26.626Z,1024.99
2024-02-15T07:53:41.012Z,1024.99
2024-02-15T07:53:55.392Z,1024.99
2024-02-15T07:54:23.791Z,1024.98
2024-02-15T07:54:37.826Z,1024.98
2024-02-15T07:54:51.880Z,1024.98
2024-02-15T07:55:05.876Z,1024.97
2024-02-15T07:55:33.894Z,1024.96
2024-02-15T07:55:47.921Z,1024.96
2024-02-15T07:56:01.965Z,1024.96
2024-02-15T07:56:15.983Z,1024.95
2024-02-15T07:56:44.049Z,1024.94
2024-02-15T07:56:58.052Z,1024.95
2024-02-15T07:57:12.087Z,1024.94
2024-02-15T07:57:26.297Z,1024.94
2024-02-15T07:57:54.296Z,1024.93
2024-02-15T07:58:08.288Z,1024.93
2024-02-15T07:58:22.318Z,1024.93
2024-02-15T07:58:36.315Z,1024.93
2024-02-15T07:59:04.405Z,1024.93
2024-02-15T08:00:21.616Z,1024.93
2024-02-15T08:00:35.696Z,1024.93
2024-02-15T08:00:49.723Z,1024.92
2024-02-15T08:01:03.941Z,1024.93
2024-02-15T08:01:18.092Z,1024.93
2024-02-15T08:01:32.160Z,1024.93
2024-02-15T08:01:46.212Z,1024.93
2024-02-15T08:02:00.253Z,1024.93
2024-02-15T08:02:14.238Z,1024.93
2024-02-15T08:02:42.262Z,1024.93
2024-02-15T08:02:56.328Z,1024.93
2024-02-15T08:03:10.387Z,1024.93
2024-02-15T08:03:24.690Z,1024.93
2024-02-15T08:03:52.715Z,1024.93
2024-02-15T08:04:06.763Z,1024.92
2024-02-15T08:04:20.820Z,1024.93
2024-02-15T08:04:34.923Z,1024.94
2024-02-15T08:05:03.048Z,1024.92
2024-02-15T08:05:17.173Z,1024.92
2024-02-15T08:05:31.213Z,1024.92
2024-02-15T08:05:45.435Z,1024.91
2024-02-15T08:06:13.490Z,1024.91
2024-02-15T08:06:27.592Z,1024.91
2024-02-15T08:06:41.696Z,1024.91
2024-02-15T08:06:55.799Z,1024.91
2024-02-15T08:07:23.857Z,1024.90
2024-02-15T08:07:38.103Z,1024.90
2024-02-15T08:07:52.108Z,1024.90
2024-02-15T08:08:06.115Z,1024.89
2024-02-15T08:08:34.110Z,1024.89
2024-02-15T08:08:48.265Z,1024.89
2024-02-15T08:09:02.395Z,1024.89
2024-02-15T08:09:16.578Z,1024.90
2024-02-15T08:09:44.550Z,1024.89
2024-02-15T08:09:58.535Z,1024.90
2024-02-15T08:10:12.538Z,1024.89
2024-02-15T08:10:26.531Z,1024.89
2024-02-15T08:10:40.519Z,1024.89
2024-02-15T08:10:54.505Z,1024.89
2024-02-15T08:11:08.516Z,1024.89
2024-02-15T08:11:22.493Z,1024.89
2024-02-15T08:11:36.486Z,1024.90
2024-02-15T08:11:50.506Z,1024.89
2024-02-15T08:12:04.628Z,1024.89
2024-02-15T08:12:18.776Z,1024.89
2024-02-15T08:12:32.894Z,1024.89
2024-02-15T08:12:46.901Z,1024.90
2024-02-15T08:13:00.916Z,1024.90
2024-02-15T08:13:14.912Z,1024.90
2024-02-15T08:13:28.896Z,1024.90
2024-02-15T08:13:42.904Z,1024.90
2024-02-15T08:13:56.901Z,1024.91
2024-02-15T08:14:13.832Z,1024.91
2024-02-15T08:14:25.859Z,1024.91
2024-02-15T08:14:39.918Z,1024.91
2024-02-15T08:14:53.997Z,1024.92
2024-02-15T08:15:08.033Z,1024.92
2024-02-15T08:15:22.057Z,1024.92
2024-02-15T08:15:36.082Z,1024.92
2024-02-15T08:15:50.084Z,1024.91
2024-02-15T08:16:04.139Z,1024.92
2024-02-15T08:16:18.156Z,1024.92
2024-02-15T08:16:32.186Z,1024.92
2024-02-15T08:16:46.197Z,1024.91
2024-02-15T08:17:00.203Z,1024.91
2024-02-15T08:17:14.180Z,1024.91
2024-02-15T08:17:28.199Z,1024.91
2024-02-15T08:17:42.264Z,1024.91
2024-02-15T08:17:56.513Z,1024.90
2024-02-15T08:18:10.923Z,1024.90
2024-02-15T08:18:39.040Z,1024.90
2024-02-15T08:18:53.183Z,1024.90
2024-02-15T08:19:07.517Z,1024.89
2024-02-15T08:19:21.816Z,1024.89
2024-02-15T08:19:49.950Z,1024.89
2024-02-15T08:20:04.090Z,1024.89
2024-02-15T08:20:18.138Z,1024.88
2024-02-15T08:20:32.115Z,1024.88
2024-02-15T08:20:46.266Z,1024.88
2024-02-15T08:21:00.453Z,1024.88
2024-02-15T08:21:14.529Z,1024.87
2024-02-15T08:21:28.566Z,1024.87
2024-02-15T08:21:42.720Z,1024.87
2024-02-15T08:21:56.898Z,1024.86
2024-02-15T08:22:10.878Z,1024.86
2024-02-15T08:22:24.880Z,1024.86
2024-02-15T08:22:38.873Z,1024.86
2024-02-15T08:22:52.869Z,1024.86
2024-02-15T08:23:20.853Z,1024.85
2024-02-15T08:23:34.893Z,1024.85
2024-02-15T08:23:48.964Z,1024.85
2024-02-15T08:24:03.107Z,1024.84
2024-02-15T08:24:31.079Z,1024.83
2024-02-15T08:24:45.065Z,1024.84
2024-02-15T08:24:59.048Z,1024.83
2024-02-15T08:25:13.121Z,1024.82
2024-02-15T08:25:41.076Z,1024.81
2024-02-15T08:25:55.059Z,1024.81
2024-02-15T08:26:09.060Z,1024.81
2024-02-15T08:26:23.067Z,1024.80
2024-02-15T08:26:51.046Z,1024.80
2024-02-15T08:27:05.136Z,1024.80
2024-02-15T08:27:19.263Z,1024.80
2024-02-15T08:27:33.338Z,1024.80
2024-02-15T08:28:01.270Z,1024.80
2024-02-15T08:28:15.252Z,1024.79
2024-02-15T08:28:29.231Z,1024.80
2024-02-15T08:28:43.219Z,1024.79
2024-02-15T08:29:11.170Z,1024.80
2024-02-15T08:29:25.160Z,1024.79
2024-02-15T08:29:39.187Z,1024.79
2024-02-15T08:29:53.200Z,1024.79
2024-02-15T08:30:24.814Z,1024.80
2024-02-15T08:30:34.391Z,1024.80
2024-02-15T08:30:48.401Z,1024.80
2024-02-15T08:31:02.378Z,1024.80
2024-02-15T08:31:30.392Z,1024.80
2024-02-15T08:31:44.386Z,1024.80
2024-02-15T08:31:58.367Z,1024.80
2024-02-15T08:32:12.357Z,1024.80
2024-02-15T08:32:40.498Z,1024.80
2024-02-15T08:32:54.947Z,1024.79
2024-02-15T08:33:10.210Z,1024.79
2024-02-15T08:33:24.379Z,1024.79
2024-02-15T08:33:52.526Z,1024.79
2024-02-15T08:34:06.594Z,1024.78
2024-02-15T08:34:20.658Z,1024.78
2024-02-15T08:34:34.864Z,1024.78
2024-02-15T08:35:03.067Z,1024.78
2024-02-15T08:35:17.248Z,1024.78
2024-02-15T08:35:31.485Z,1024.78
2024-02-15T08:35:45.769Z,1024.79
2024-02-15T08:36:13.938Z,1024.78
2024-02-15T08:36:28.069Z,1024.78
2024-02-15T08:36:42.131Z,1024.78
2024-02-15T08:36:56.215Z,1024.77
2024-02-15T08:37:24.272Z,1024.78
2024-02-15T08:37:38.261Z,1024.76
2024-02-15T08:37:52.246Z,1024.76
2024-02-15T08:38:06.240Z,1024.75
2024-02-15T08:38:34.282Z,1024.74
2024-02-15T08:38:48.343Z,1024.73
2024-02-15T08:39:02.463Z,1024.72
2024-02-15T08:39:16.579Z,1024.71
2024-02-15T08:39:44.584Z,1024.70
2024-02-15T08:39:58.571Z,1024.69
2024-02-15T08:40:12.606Z,1024.68
2024-02-15T08:40:27.180Z,1024.67
2024-02-15T08:40:55.349Z,1024.65
2024-02-15T08:41:09.344Z,1024.64
2024-02-15T08:41:23.351Z,1024.63
2024-02-15T08:41:37.397Z,1024.63
2024-02-15T08:42:05.381Z,1024.61
2024-02-15T08:42:19.523Z,1024.61
2024-02-15T08:42:33.554Z,1024.61
2024-02-15T08:42:47.547Z,1024.61
2024-02-15T08:43:15.523Z,1024.60
2024-02-15T08:43:29.510Z,1024.60
2024-02-15T08:43:43.537Z,1024.60
2024-02-15T08:43:57.552Z,1024.60
2024-02-15T08:44:11.560Z,1024.60
2024-02-15T08:44:25.559Z,1024.61
2024-02-15T08:44:39.662Z,1024.60
2024-02-15T08:44:53.774Z,1024.60
2024-02-15T08:45:07.876Z,1024.60
2024-02-15T08:45:35.895Z,1024.61
2024-02-15T08:45:49.944Z,1024.60
2024-02-15T08:46:03.954Z,1024.61
2024-02-15T08:46:17.976Z,1024.61
2024-02-15T08:46:47.193Z,1024.61
2024-02-15T08:46:59.656Z,1024.60
2024-02-15T08:47:13.646Z,1024.60
2024-02-15T08:47:27.642Z,1024.60
2024-02-15T08:47:55.648Z,1024.60
2024-02-15T08:48:09.939Z,1024.60
2024-02-15T08:48:24.136Z,1024.60
2024-02-15T08:48:38.394Z,1024.60
2024-02-15T08:49:06.622Z,1024.59
2024-02-15T08:49:20.902Z,1024.59
2024-02-15T08:49:35.057Z,1024.59
2024-02-15T08:49:49.236Z,1024.59
2024-02-15T08:50:17.284Z,1024.59
2024-02-15T08:50:31.332Z,1024.58
2024-02-15T08:50:45.368Z,1024.58
2024-02-15T08:50:59.496Z,1024.58
2024-02-15T08:51:27.612Z,1024.57
2024-02-15T08:51:41.756Z,1024.56
2024-02-15T08:51:55.923Z,1024.56
2024-02-15T08:52:10.084Z,1024.56
2024-02-15T08:52:24.287Z,1024.55
2024-02-15T08:52:38.311Z,1024.55
2024-02-15T08:52:52.345Z,1024.55
2024-02-15T08:53:06.344Z,1024.55
2024-02-15T08:53:20.373Z,1024.54
2024-02-15T08:53:48.414Z,1024.54
2024-02-15T08:54:02.527Z,1024.54
2024-02-15T08:54:16.667Z,1024.53
2024-02-15T08:54:30.709Z,1024.53
2024-02-15T08:54:58.673Z,1024.53
2024-02-15T08:55:12.672Z,1024.53
2024-02-15T08:55:26.677Z,1024.53
2024-02-15T08:55:40.673Z,1024.53
2024-02-15T08:56:08.675Z,1024.53
2024-02-15T08:56:22.672Z,1024.53
2024-02-15T08:56:36.722Z,1024.54
2024-02-15T08:56:50.746Z,1024.54
2024-02-15T08:57:18.954Z,1024.54
2024-02-15T08:57:33.009Z,1024.55
2024-02-15T08:57:47.023Z,1024.55
2024-02-15T08:58:01.021Z,1024.55
2024-02-15T08:58:28.986Z,1024.55
2024-02-15T08:58:42.971Z,1024.55
2024-02-15T08:58:56.956Z,1024.55
2024-02-15T08:59:10.976Z,1024.55
2024-02-15T08:59:38.981Z,1024.55
2024-02-15T08:59:53.049Z,1024.55
2024-02-15T09:00:07.147Z,1024.55
2024-02-15T09:00:21.280Z,1024.54
2024-02-15T09:00:49.421Z,1024.54
2024-02-15T09:01:03.468Z,1024.53
2024-02-15T09:01:17.513Z,1024.53
2024-02-15T09:01:31.541Z,1024.53
2024-02-15T09:01:59.507Z,1024.52
2024-02-15T09:02:13.515Z,1024.51
2024-02-15T09:02:27.498Z,1024.51
2024-02-15T09:02:41.599Z,1024.51
2024-02-15T09:03:09.737Z,1024.50
2024-02-15T09:03:23.861Z,1024.50
2024-02-15T09:03:37.952Z,1024.50
2024-02-15T09:03:52.071Z,1024.50
2024-02-15T09:04:20.070Z,1024.49
2024-02-15T09:04:34.164Z,1024.49
2024-02-15T09:04:48.236Z,1024.49
2024-02-15T09:05:02.284Z,1024.48
2024-02-15T09:05:16.546Z,1024.48
2024-02-15T09:05:30.634Z,1024.48
2024-02-15T09:05:44.887Z,1024.48
2024-02-15T09:05:59.030Z,1024.48
2024-02-15T09:06:13.223Z,1024.49
2024-02-15T09:06:41.458Z,1024.49
2024-02-15T09:06:55.528Z,1024.49
2024-02-15T09:07:09.749Z,1024.49
2024-02-15T09:07:23.848Z,1024.48
2024-02-15T09:07:51.813Z,1024.50
2024-02-15T09:08:05.887Z,1024.48
2024-02-15T09:08:19.912Z,1024.49
2024-02-15T09:08:33.929Z,1024.48
2024-02-15T09:09:01.996Z,1024.47
2024-02-15T09:09:16.078Z,1024.47
2024-02-15T09:09:30.122Z,1024.47
2024-02-15T09:09:44.118Z,1024.46
2024-02-15T09:10:15.064Z,1024.46
2024-02-15T09:10:26.510Z,1024.45
2024-02-15T09:10:40.777Z,1024.45
2024-02-15T09:10:54.933Z,1024.45
2024-02-15T09:11:22.938Z,1024.45
2024-02-15T09:11:37.072Z,1024.45
2024-02-15T09:11:51.245Z,1024.45
2024-02-15T09:12:05.437Z,1024.45
2024-02-15T09:12:33.655Z,1024.45
2024-02-15T09:12:47.734Z,1024.44
2024-02-15T09:13:01.726Z,1024.44
2024-02-15T09:13:15.759Z,1024.44
2024-02-15T09:13:29.759Z,1024.44
2024-02-15T09:13:43.810Z,1024.44
2024-02-15T09:13:57.821Z,1024.44
2024-02-15T09:14:11.858Z,1024.43
2024-02-15T09:14:25.859Z,1024.43
2024-02-15T09:14:53.832Z,1024.42
2024-02-15T09:15:07.987Z,1024.42
2024-02-15T09:15:22.056Z,1024.42
2024-02-15T09:15:36.069Z,1024.42
2024-02-15T09:16:04.034Z,1024.41
2024-02-15T09:16:18.064Z,1024.41
2024-02-15T09:16:32.057Z,1024.41
2024-02-15T09:16:46.055Z,1024.40
2024-02-15T09:17:14.056Z,1024.41
2024-02-15T09:17:28.069Z,1024.41
2024-02-15T09:17:42.219Z,1024.41
2024-02-15T09:17:56.427Z,1024.41
2024-02-15T09:18:24.681Z,1024.41
2024-02-15T09:18:38.860Z,1024.41
2024-02-15T09:18:53.127Z,1024.40
2024-02-15T09:19:07.440Z,1024.41
2024-02-15T09:19:35.537Z,1024.40
2024-02-15T09:19:49.632Z,1024.40
2024-02-15T09:20:03.743Z,1024.40
2024-02-15T09:20:17.765Z,1024.39
2024-02-15T09:20:45.781Z,1024.39
2024-02-15T09:20:59.814Z,1024.39
2024-02-15T09:21:13.846Z,1024.38
2024-02-15T09:21:27.931Z,1024.38
2024-02-15T09:21:55.923Z,1024.37
2024-02-15T09:22:09.906Z,1024.37
2024-02-15T09:22:23.920Z,1024.37
2024-02-15T09:22:37.934Z,1024.36
2024-02-15T09:23:08.793Z,1024.35
2024-02-15T09:23:20.571Z,1024.34
2024-02-15T09:23:34.648Z,1024.33
2024-02-15T09:23:48.713Z,1024.33
2024-02-15T09:24:16.692Z,1024.31
2024-02-15T09:24:30.786Z,1024.31
2024-02-15T09:24:44.796Z,1024.31
2024-02-15T09:24:58.796Z,1024.30
2024-02-15T09:25:26.749Z,1024.29
2024-02-15T09:25:40.719Z,1024.29
2024-02-15T09:25:54.754Z,1024.29
2024-02-15T09:26:08.790Z,1024.29
2024-02-15T09:26:36.782Z,1024.28
2024-02-15T09:26:50.840Z,1024.28
2024-02-15T09:27:04.901Z,1024.28
2024-02-15T09:27:19.008Z,1024.28
2024-02-15T09:27:47.235Z,1024.27
2024-02-15T09:28:01.376Z,1024.27
2024-02-15T09:28:15.367Z,1024.27
2024-02-15T09:28:29.380Z,1024.26
2024-02-15T09:28:57.384Z,1024.26
2024-02-15T09:29:11.392Z,1024.25
2024-02-15T09:29:25.390Z,1024.24
2024-02-15T09:29:39.398Z,1024.24
2024-02-15T09:30:07.388Z,1024.23
2024-02-15T09:30:21.467Z,1024.23
2024-02-15T09:30:35.526Z,1024.22
2024-02-15T09:30:49.516Z,1024.22
2024-02-15T09:31:17.475Z,1024.20
2024-02-15T09:31:31.451Z,1024.20
2024-02-15T09:31:45.456Z,1024.19
2024-02-15T09:31:59.456Z,1024.19
2024-02-15T09:32:27.442Z,1024.18
2024-02-15T09:32:41.562Z,1024.19
2024-02-15T09:32:55.662Z,1024.18
2024-02-15T09:33:09.859Z,1024.18
2024-02-15T09:33:37.956Z,1024.17
2024-02-15T09:33:52.215Z,1024.17
2024-02-15T09:34:06.519Z,1024.17
2024-02-15T09:34:20.697Z,1024.17
2024-02-15T09:34:34.899Z,1024.16
2024-02-15T09:34:49.044Z,1024.16
2024-02-15T09:35:04.519Z,1024.16
2024-02-15T09:35:17.637Z,1024.15
2024-02-15T09:35:31.689Z,1024.15
2024-02-15T09:35:59.755Z,1024.14
2024-02-15T09:36:13.877Z,1024.13
2024-02-15T09:36:27.989Z,1024.13
2024-02-15T09:36:41.990Z,1024.13
2024-02-15T09:37:09.957Z,1024.12
2024-02-15T09:37:23.925Z,1024.12
2024-02-15T09:37:37.934Z,1024.12
2024-02-15T09:37:51.945Z,1024.12
2024-02-15T09:38:19.918Z,1024.12
2024-02-15T09:38:33.978Z,1024.12
2024-02-15T09:38:48.099Z,1024.12
2024-02-15T09:39:02.178Z,1024.12
2024-02-15T09:39:30.151Z,1024.12
2024-02-15T09:39:44.198Z,1024.12
2024-02-15T09:39:58.191Z,1024.12
2024-02-15T09:40:12.255Z,1024.12
2024-02-15T09:40:40.228Z,1024.11
2024-02-15T09:40:54.220Z,1024.11
2024-02-15T09:41:08.677Z,1024.11
2024-02-15T09:41:22.896Z,1024.11
2024-02-15T09:41:50.889Z,1024.10
2024-02-15T09:42:04.980Z,1024.10
2024-02-15T09:42:19.077Z,1024.10
2024-02-15T09:42:33.081Z,1024.10
2024-02-15T09:42:47.076Z,1024.10
2024-02-15T09:43:01.112Z,1024.10
2024-02-15T09:43:15.125Z,1024.10
2024-02-15T09:43:29.161Z,1024.10
2024-02-15T09:43:43.156Z,1024.10
2024-02-15T09:44:11.111Z,1024.10
2024-02-15T09:44:25.090Z,1024.10
2024-02-15T09:44:39.120Z,1024.10
2024-02-15T09:44:53.110Z,1024.11
2024-02-15T09:45:21.184Z,1024.11
2024-02-15T09:45:35.230Z,1024.11
2024-02-15T09:45:49.236Z,1024.11
2024-02-15T09:46:03.260Z,1024.12
2024-02-15T09:46:34.937Z,1024.10
2024-02-15T09:46:43.958Z,1024.10
2024-02-15T09:46:57.936Z,1024.10
2024-02-15T09:47:11.924Z,1024.09
2024-02-15T09:47:25.970Z,1024.09
2024-02-15T09:47:40.020Z,1024.08
2024-02-15T09:47:54.207Z,1024.08
2024-02-15T09:48:08.472Z,1024.07
2024-02-15T09:48:22.778Z,1024.07
2024-02-15T09:48:51.042Z,1024.07
2024-02-15T09:49:05.422Z,1024.07
2024-02-15T09:49:19.890Z,1024.07
2024-02-15T09:49:34.155Z,1024.07
2024-02-15T09:50:02.233Z,1024.07
2024-02-15T09:50:16.414Z,1024.07
2024-02-15T09:50:30.534Z,1024.06
2024-02-15T09:50:44.601Z,1024.06
2024-02-15T09:51:12.644Z,1024.06
2024-02-15T09:51:27.621Z,1024.06
2024-02-15T09:51:41.673Z,1024.05
2024-02-15T09:51:55.694Z,1024.04
2024-02-15T09:52:23.706Z,1024.04
2024-02-15T09:52:37.691Z,1024.03
2024-02-15T09:52:51.674Z,1024.03
2024-02-15T09:53:05.657Z,1024.03
2024-02-15T09:53:33.756Z,1024.02
2024-02-15T09:53:47.866Z,1024.01
2024-02-15T09:54:02.709Z,1024.01
2024-02-15T09:54:16.814Z,1024.01
2024-02-15T09:54:45.587Z,1024.00
2024-02-15T09:54:59.590Z,1023.99
2024-02-15T09:55:13.598Z,1023.98
2024-02-15T09:55:27.628Z,1023.98
2024-02-15T09:55:55.624Z,1023.97
2024-02-15T09:56:09.678Z,1023.97
2024-02-15T09:56:23.656Z,1023.97
2024-02-15T09:56:37.697Z,1023.96
2024-02-15T09:57:05.719Z,1023.97
2024-02-15T09:57:19.872Z,1023.95
2024-02-15T09:57:33.934Z,1023.95
2024-02-15T09:57:48.188Z,1023.95
2024-02-15T09:58:16.325Z,1023.94
2024-02-15T09:58:33.061Z,1023.94
2024-02-15T09:58:43.715Z,1023.93
2024-02-15T09:58:57.715Z,1023.93
2024-02-15T09:59:25.694Z,1023.93
2024-02-15T09:59:39.713Z,1023.93
2024-02-15T09:59:53.752Z,1023.92
2024-02-15T10:00:07.802Z,1023.92
2024-02-15T10:00:35.835Z,1023.92
2024-02-15T10:00:49.892Z,1023.91
2024-02-15T10:01:03.996Z,1023.91
2024-02-15T10:01:18.095Z,1023.91
2024-02-15T10:01:46.096Z,1023.91
2024-02-15T10:02:00.170Z,1023.91
2024-02-15T10:02:14.256Z,1023.91
2024-02-15T10:02:28.250Z,1023.90
2024-02-15T10:02:56.368Z,1023.89
2024-02-15T10:03:10.524Z,1023.89
2024-02-15T10:03:24.631Z,1023.89
2024-02-15T10:03:38.645Z,1023.88
2024-02-15T10:03:52.700Z,1023.88
2024-02-15T10:04:07.818Z,1023.88
2024-02-15T10:04:19.325Z,1023.88
2024-02-15T10:04:33.346Z,1023.88
2024-02-15T10:04:50.405Z,1023.88
2024-02-15T10:05:14.422Z,1023.87
2024-02-15T10:05:28.484Z,1023.87
2024-02-15T10:05:42.616Z,1023.87
2024-02-15T10:05:56.796Z,1023.87
2024-02-15T10:06:24.989Z,1023.86
2024-02-15T10:06:39.125Z,1023.86
2024-02-15T10:06:53.344Z,1023.86
2024-02-15T10:07:07.592Z,1023.86
2024-02-15T10:07:35.569Z,1023.85
2024-02-15T10:07:49.547Z,1023.86
2024-02-15T10:08:03.551Z,1023.85
2024-02-15T10:08:17.552Z,1023.86
2024-02-15T10:08:45.517Z,1023.85
2024-02-15T10:08:59.564Z,1023.85
2024-02-15T10:09:13.603Z,1023.85
2024-02-15T10:09:27.607Z,1023.85
2024-02-15T10:09:57.392Z,1023.84
2024-02-15T10:10:10.256Z,1023.84
2024-02-15T10:10:24.264Z,1023.83
2024-02-15T10:10:38.260Z,1023.83
2024-02-15T10:11:06.217Z,1023.83
2024-02-15T10:11:20.270Z,1023.82
2024-02-15T10:11:34.384Z,1023.82
2024-02-15T10:11:48.414Z,1023.82
2024-02-15T10:12:16.413Z,1023.82
2024-02-15T10:12:30.433Z,1023.82
2024-02-15T10:12:44.433Z,1023.82
2024-02-15T10:12:58.474Z,1023.82
2024-02-15T10:13:26.406Z,1023.83
2024-02-15T10:13:40.587Z,1023.82
2024-02-15T10:13:54.637Z,1023.82
2024-02-15T10:14:08.617Z,1023.82
2024-02-15T10:14:36.597Z,1023.82
2024-02-15T10:14:50.640Z,1023.81
2024-02-15T10:15:04.687Z,1023.81
2024-02-15T10:15:18.768Z,1023.81
2024-02-15T10:15:46.811Z,1023.81
2024-02-15T10:16:00.934Z,1023.81
2024-02-15T10:16:15.003Z,1023.81
2024-02-15T10:16:29.017Z,1023.80
2024-02-15T10:16:43.021Z,1023.80
2024-02-15T10:16:57.042Z,1023.80
2024-02-15T10:17:11.183Z,1023.80
2024-02-15T10:17:25.224Z,1023.80
2024-02-15T10:17:39.310Z,1023.79
2024-02-15T10:18:07.606Z,1023.79
2024-02-15T10:18:21.793Z,1023.79
2024-02-15T10:18:35.944Z,1023.79
2024-02-15T10:18:50.278Z,1023.78
2024-02-15T10:19:18.435Z,1023.78
2024-02-15T10:19:32.517Z,1023.78
2024-02-15T10:19:46.576Z,1023.77
2024-02-15T10:20:00.677Z,1023.77
2024-02-15T10:20:28.696Z,1023.77
2024-02-15T10:20:42.829Z,1023.77
2024-02-15T10:20:56.874Z,1023.77
2024-02-15T10:21:10.943Z,1023.76
2024-02-15T10:21:38.960Z,1023.76
2024-02-15T10:21:52.952Z,1023.75
2024-02-15T10:22:06.965Z,1023.75
2024-02-15T10:22:20.948Z,1023.75
2024-02-15T10:22:48.895Z,1023.74
2024-02-15T10:23:02.883Z,1023.74
2024-02-15T10:23:16.862Z,1023.74
2024-02-15T10:23:30.856Z,1023.74
2024-02-15T10:23:58.865Z,1023.74
2024-02-15T10:24:12.934Z,1023.74
2024-02-15T10:24:26.963Z,1023.73
2024-02-15T10:24:41.290Z,1023.74
2024-02-15T10:25:09.292Z,1023.74
2024-02-15T10:25:23.279Z,1023.74
2024-02-15T10:25:37.273Z,1023.74
2024-02-15T10:25:51.272Z,1023.75
2024-02-15T10:26:19.222Z,1023.75
2024-02-15T10:26:33.206Z,1023.75
2024-02-15T10:26:47.234Z,1023.75
2024-02-15T10:27:01.288Z,1023.75
2024-02-15T10:27:29.277Z,1023.75
2024-02-15T10:27:45.805Z,1023.75
2024-02-15T10:27:56.654Z,1023.74
2024-02-15T10:28:10.747Z,1023.74
2024-02-15T10:28:38.812Z,1023.74
2024-02-15T10:28:52.799Z,1023.73
2024-02-15T10:29:06.781Z,1023.73
2024-02-15T10:29:20.781Z,1023.73
2024-02-15T10:29:34.798Z,1023.73
2024-02-15T10:29:48.824Z,1023.73
2024-02-15T10:30:02.857Z,1023.72
2024-02-15T10:30:17.022Z,1023.72
2024-02-15T10:30:31.040Z,1023.71
2024-02-15T10:30:59.028Z,1023.71
2024-02-15T10:31:13.052Z,1023.70
2024-02-15T10:31:27.062Z,1023.70
2024-02-15T10:31:41.055Z,1023.69
2024-02-15T10:32:08.988Z,1023.67
2024-02-15T10:32:23.044Z,1023.67
2024-02-15T10:32:37.447Z,1023.66
2024-02-15T10:32:52.723Z,1023.65
2024-02-15T10:33:19.485Z,1023.64
2024-02-15T10:33:33.630Z,1023.64
2024-02-15T10:33:47.975Z,1023.63
2024-02-15T10:34:02.245Z,1023.62
2024-02-15T10:34:30.547Z,1023.61
2024-02-15T10:34:44.741Z,1023.61
2024-02-15T10:34:58.790Z,1023.60
2024-02-15T10:35:12.838Z,1023.60
2024-02-15T10:35:40.836Z,1023.59
2024-02-15T10:35:54.868Z,1023.59
2024-02-15T10:36:08.967Z,1023.59
2024-02-15T10:36:23.006Z,1023.59
2024-02-15T10:36:50.975Z,1023.57
2024-02-15T10:37:04.996Z,1023.57
2024-02-15T10:37:18.974Z,1023.57
2024-02-15T10:37:32.970Z,1023.57
2024-02-15T10:38:00.906Z,1023.56
2024-02-15T10:38:18.195Z,1023.55
2024-02-15T10:38:28.590Z,1023.55
2024-02-15T10:38:42.612Z,1023.55
2024-02-15T10:39:10.649Z,1023.54
2024-02-15T10:39:24.726Z,1023.55
2024-02-15T10:39:38.772Z,1023.55
2024-02-15T10:39:52.762Z,1023.54
2024-02-15T10:40:20.731Z,1023.54
2024-02-15T10:40:34.710Z,1023.54
2024-02-15T10:40:48.722Z,1023.54
2024-02-15T10:41:02.699Z,1023.54
2024-02-15T10:41:30.687Z,1023.53
2024-02-15T10:41:44.807Z,1023.54
2024-02-15T10:41:59.017Z,1023.54